createdAt,value
2023-04-30T00:01:44.751Z,100955.06
2023-04-30T00:03:46.533Z,100962.75
2023-04-30T00:05:50.755Z,100958.22
2023-04-30T00:07:54.061Z,100964.44
2023-04-30T00:09:56.451Z,100963.66
2023-04-30T00:11:59.723Z,100965.44
2023-04-30T00:14:01.586Z,100972.78
2023-04-30T00:16:03.643Z,100967.84
2023-04-30T00:18:06.987Z,100974.41
2023-04-30T00:20:09.436Z,100969.56
2023-04-30T00:22:11.220Z,100979.63
2023-04-30T00:24:14.421Z,100970.47
2023-04-30T00:26:16.104Z,100989.41
2023-04-30T00:28:17.762Z,100976.09
2023-04-30T00:30:19.446Z,100975.91
2023-04-30T00:32:22.341Z,100983.59
2023-04-30T00:34:24.272Z,100988.13
2023-04-30T00:36:27.329Z,100985.59
2023-04-30T00:38:28.921Z,100987.19
2023-04-30T00:40:34.883Z,100984.38
2023-04-30T00:42:36.863Z,100984.59
2023-04-30T00:44:38.601Z,100989.00
2023-04-30T00:46:40.439Z,100979.34
2023-04-30T00:48:42.902Z,100986.50
2023-04-30T00:50:44.983Z,100981.56
2023-04-30T00:52:46.862Z,100979.66
2023-04-30T00:54:49.235Z,100980.97
2023-04-30T00:56:52.383Z,100982.78
2023-04-30T00:58:55.780Z,100989.84
2023-04-30T01:00:58.239Z,100985.81
2023-04-30T01:03:00.746Z,100986.19
2023-04-30T01:05:02.650Z,100985.00
2023-04-30T01:07:04.588Z,100978.53
2023-04-30T01:09:06.625Z,100984.91
2023-04-30T01:11:17.189Z,100983.56
2023-04-30T01:13:28.769Z,100982.44
2023-04-30T01:15:38.389Z,100982.50
2023-04-30T01:17:47.645Z,100987.03
2023-04-30T01:19:49.962Z,100988.66
2023-04-30T01:21:53.528Z,100986.31
2023-04-30T01:24:08.732Z,100992.09
2023-04-30T01:26:15.646Z,100989.25
2023-04-30T01:28:18.971Z,100988.84
2023-04-30T01:30:22.586Z,100982.81
2023-04-30T01:32:24.231Z,100977.00
2023-04-30T01:34:25.899Z,100974.88
2023-04-30T01:36:42.259Z,100977.41
2023-04-30T01:39:02.699Z,100971.97
2023-04-30T01:41:11.346Z,100974.50
2023-04-30T01:43:30.092Z,100965.50
2023-04-30T01:45:47.138Z,100977.78
2023-04-30T01:47:56.008Z,100974.56
2023-04-30T01:50:09.860Z,100972.94
2023-04-30T01:52:20.476Z,100973.78
2023-04-30T01:54:31.515Z,100977.91
2023-04-30T01:56:40.738Z,100976.06
2023-04-30T01:58:46.260Z,100985.13
2023-04-30T02:00:48.205Z,100986.53
2023-04-30T02:02:50.149Z,100980.75
2023-04-30T02:04:51.838Z,100985.00
2023-04-30T02:06:53.840Z,100987.53
2023-04-30T02:08:55.983Z,100987.25
2023-04-30T02:10:57.566Z,100986.72
2023-04-30T02:12:59.380Z,100980.91
2023-04-30T02:15:03.334Z,100983.81
2023-04-30T02:17:04.931Z,100978.91
2023-04-30T02:19:07.760Z,100980.44
2023-04-30T02:21:09.418Z,100980.41
2023-04-30T02:23:11.042Z,100982.50
2023-04-30T02:25:13.657Z,100986.25
2023-04-30T02:27:17.516Z,100985.75
2023-04-30T02:29:19.463Z,100989.66
2023-04-30T02:31:24.870Z,100976.56
2023-04-30T02:33:26.552Z,100984.25
2023-04-30T02:35:28.236Z,100982.69
2023-04-30T02:37:33.174Z,100982.16
2023-04-30T02:39:34.873Z,100981.66
2023-04-30T02:41:36.451Z,100979.78
2023-04-30T02:43:38.206Z,100977.09
2023-04-30T02:45:39.885Z,100976.63
2023-04-30T02:47:42.923Z,100974.63
2023-04-30T02:49:44.495Z,100977.47
2023-04-30T02:51:46.435Z,100974.53
2023-04-30T02:53:48.293Z,100978.16
2023-04-30T02:55:49.957Z,100974.91
2023-04-30T02:57:51.855Z,100978.25
2023-04-30T02:59:53.733Z,100980.22
2023-04-30T03:01:55.619Z,100980.44
2023-04-30T03:03:58.596Z,100981.28
2023-04-30T03:06:00.203Z,100981.91
2023-04-30T03:08:01.813Z,100982.03
2023-04-30T03:10:09.048Z,100984.84
2023-04-30T03:12:10.653Z,100984.63
2023-04-30T03:14:12.321Z,100991.91
2023-04-30T03:16:13.922Z,100988.56
2023-04-30T03:18:15.548Z,100987.84
2023-04-30T03:20:18.652Z,100984.84
2023-04-30T03:22:20.619Z,100985.03
2023-04-30T03:24:22.174Z,100983.41
2023-04-30T03:26:24.259Z,100985.88
2023-04-30T03:28:25.789Z,100983.78
2023-04-30T03:30:27.379Z,100981.88
2023-04-30T03:32:29.011Z,100980.72
2023-04-30T03:34:31.833Z,100983.19
2023-04-30T03:36:34.798Z,100981.59
2023-04-30T03:38:36.427Z,100980.13
2023-04-30T03:40:38.453Z,100972.28
2023-04-30T03:42:40.412Z,100977.69
2023-04-30T03:44:42.240Z,100973.69
2023-04-30T03:46:44.220Z,100981.09
2023-04-30T03:48:45.973Z,100981.66
2023-04-30T03:50:47.766Z,100979.00
2023-04-30T03:52:50.766Z,100979.16
2023-04-30T03:54:52.361Z,100984.69
2023-04-30T03:56:54.027Z,100978.72
2023-04-30T03:58:55.617Z,100978.63
2023-04-30T04:00:59.308Z,100981.88
2023-04-30T04:03:01.050Z,100978.16
2023-04-30T04:05:03.157Z,100974.91
2023-04-30T04:07:04.736Z,100973.50
2023-04-30T04:09:10.298Z,100982.56
2023-04-30T04:11:12.241Z,100978.22
2023-04-30T04:13:13.799Z,100981.72
2023-04-30T04:15:15.449Z,100979.75
2023-04-30T04:17:17.221Z,100986.34
2023-04-30T04:19:18.910Z,100980.47
2023-04-30T04:21:20.953Z,100981.97
2023-04-30T04:23:22.627Z,100982.75
2023-04-30T04:25:25.894Z,100979.75
2023-04-30T04:27:27.561Z,100984.50
2023-04-30T04:29:29.118Z,100984.69
2023-04-30T04:31:30.816Z,100989.56
2023-04-30T04:33:32.697Z,100991.91
2023-04-30T04:35:34.426Z,100991.03
2023-04-30T04:37:35.978Z,100999.69
2023-04-30T04:39:38.785Z,100998.09
2023-04-30T04:41:41.720Z,100998.66
2023-04-30T04:43:47.448Z,101002.78
2023-04-30T04:45:49.111Z,101003.00
2023-04-30T04:47:51.091Z,101000.88
2023-04-30T04:49:53.538Z,100994.13
2023-04-30T04:51:55.492Z,100998.59
2023-04-30T04:54:01.209Z,100999.69
2023-04-30T04:56:05.276Z,101000.88
2023-04-30T04:58:08.334Z,100993.31
2023-04-30T05:00:10.485Z,101004.16
2023-04-30T05:02:12.134Z,100995.75
2023-04-30T05:04:14.135Z,100993.25
2023-04-30T05:06:15.861Z,100992.34
2023-04-30T05:08:17.483Z,100999.81
2023-04-30T05:10:19.188Z,101003.41
2023-04-30T05:12:20.751Z,101004.66
2023-04-30T05:14:23.777Z,101013.00
2023-04-30T05:16:25.748Z,101002.66
2023-04-30T05:18:27.667Z,101001.16
2023-04-30T05:20:29.373Z,101006.47
2023-04-30T05:22:30.904Z,100997.22
2023-04-30T05:24:32.558Z,101008.50
2023-04-30T05:26:34.134Z,101005.78
2023-04-30T05:28:35.830Z,101005.38
2023-04-30T05:30:38.718Z,101004.47
2023-04-30T05:32:40.334Z,101001.97
2023-04-30T05:34:42.020Z,101008.22
2023-04-30T05:36:44.389Z,101014.66
2023-04-30T05:38:46.013Z,101010.47
2023-04-30T05:40:47.676Z,101014.59
2023-04-30T05:42:49.179Z,101011.00
2023-04-30T05:44:50.780Z,101010.63
2023-04-30T05:46:53.649Z,101011.22
2023-04-30T05:48:55.222Z,101011.81
2023-04-30T05:50:56.776Z,101006.88
2023-04-30T05:52:58.349Z,101013.66
2023-04-30T05:54:59.913Z,101011.50
2023-04-30T05:57:01.498Z,101007.59
2023-04-30T05:59:03.030Z,101012.84
2023-04-30T06:01:06.551Z,101006.03
2023-04-30T06:03:09.593Z,101008.81
2023-04-30T06:05:11.487Z,101001.59
2023-04-30T06:07:14.021Z,101007.22
2023-04-30T06:09:15.648Z,101007.56
2023-04-30T06:11:17.265Z,101001.97
2023-04-30T06:13:18.831Z,101008.97
2023-04-30T06:15:20.403Z,101005.91
2023-04-30T06:17:22.022Z,101008.13
2023-04-30T06:19:24.987Z,101006.28
2023-04-30T06:21:26.522Z,101005.06
2023-04-30T06:23:28.075Z,101007.28
2023-04-30T06:25:29.639Z,101014.44
2023-04-30T06:27:31.213Z,101002.91
2023-04-30T06:29:32.795Z,101010.53
2023-04-30T06:31:34.471Z,101008.94
2023-04-30T06:33:36.088Z,101018.81
2023-04-30T06:35:42.031Z,101016.09
2023-04-30T06:37:43.635Z,101020.19
2023-04-30T06:39:45.322Z,101015.19
2023-04-30T06:41:47.256Z,101010.75
2023-04-30T06:43:48.751Z,101019.81
2023-04-30T06:45:50.420Z,101023.44
2023-04-30T06:47:52.151Z,101023.44
2023-04-30T06:49:53.951Z,101013.25
2023-04-30T06:51:56.990Z,101017.91
2023-04-30T06:54:00.539Z,101017.78
2023-04-30T06:56:02.217Z,101022.22
2023-04-30T06:58:03.803Z,101025.16
2023-04-30T07:00:05.960Z,101029.00
2023-04-30T07:02:07.589Z,101024.34
2023-04-30T07:04:09.282Z,101018.41
2023-04-30T07:06:10.916Z,101020.19
2023-04-30T07:08:13.811Z,101019.31
2023-04-30T07:10:15.385Z,101015.03
2023-04-30T07:12:16.983Z,101017.75
2023-04-30T07:14:18.526Z,101017.03
2023-04-30T07:16:20.132Z,101019.44
2023-04-30T07:18:23.964Z,101020.47
2023-04-30T07:20:25.736Z,101020.38
2023-04-30T07:22:27.276Z,101014.00
2023-04-30T07:24:31.161Z,101023.66
2023-04-30T07:26:32.822Z,101013.94
2023-04-30T07:28:34.414Z,101014.34
2023-04-30T07:30:35.981Z,101011.97
2023-04-30T07:32:38.146Z,101013.28
2023-04-30T07:34:39.845Z,101006.09
2023-04-30T07:36:41.419Z,101013.97
2023-04-30T07:38:42.931Z,101014.47
2023-04-30T07:40:45.841Z,101020.31
2023-04-30T07:42:47.411Z,101011.09
2023-04-30T07:44:49.038Z,101013.88
2023-04-30T07:46:50.657Z,101014.69
2023-04-30T07:48:52.285Z,101009.31
2023-04-30T07:50:53.882Z,101009.97
2023-04-30T07:52:55.429Z,101010.59
2023-04-30T07:54:57.021Z,101011.09
2023-04-30T07:56:59.889Z,101014.28
2023-04-30T07:59:01.480Z,101004.19
2023-04-30T08:01:03.068Z,101010.47
2023-04-30T08:03:04.746Z,101017.25
2023-04-30T08:05:06.819Z,101020.81
2023-04-30T08:07:08.343Z,101013.78
2023-04-30T08:09:09.914Z,101016.34
2023-04-30T08:11:11.536Z,101006.72
2023-04-30T08:13:14.488Z,101012.00
2023-04-30T08:15:16.019Z,101016.03
2023-04-30T08:17:17.583Z,101018.09
2023-04-30T08:19:19.165Z,101010.75
2023-04-30T08:21:20.786Z,101010.75
2023-04-30T08:23:22.330Z,101013.59
2023-04-30T08:25:24.105Z,101005.06
2023-04-30T08:27:25.641Z,101008.91
2023-04-30T08:29:28.587Z,101010.38
2023-04-30T08:31:30.221Z,101002.19
2023-04-30T08:33:31.788Z,101015.19
2023-04-30T08:35:33.365Z,100996.91
2023-04-30T08:37:34.963Z,101004.44
2023-04-30T08:39:36.591Z,100998.81
2023-04-30T08:41:39.277Z,100997.56
2023-04-30T08:43:41.400Z,101000.78
2023-04-30T08:45:45.133Z,101000.16
2023-04-30T08:47:47.833Z,100997.91
2023-04-30T08:49:49.847Z,101003.69
2023-04-30T08:51:51.777Z,101003.69
2023-04-30T08:53:55.355Z,101006.91
2023-04-30T08:55:57.200Z,101002.75
2023-04-30T08:57:58.807Z,101003.22
2023-04-30T09:00:00.672Z,100999.41
2023-04-30T09:02:04.795Z,100996.38
2023-04-30T09:04:06.875Z,101000.53
2023-04-30T09:06:08.558Z,100995.88
2023-04-30T09:08:16.632Z,100995.09
2023-04-30T09:10:19.557Z,101002.63
2023-04-30T09:12:21.234Z,100999.25
2023-04-30T09:14:24.699Z,100997.31
2023-04-30T09:16:28.023Z,100995.41
2023-04-30T09:18:39.158Z,100994.28
2023-04-30T09:20:55.518Z,100997.63
2023-04-30T09:23:06.182Z,100997.16
2023-04-30T09:25:09.027Z,100995.69
2023-04-30T09:27:16.593Z,100996.03
2023-04-30T09:29:18.238Z,100993.59
2023-04-30T09:31:20.524Z,100983.19
2023-04-30T09:33:22.653Z,101002.78
2023-04-30T09:35:32.425Z,100997.94
2023-04-30T09:37:37.742Z,100999.09
2023-04-30T09:39:50.082Z,101000.03
2023-04-30T09:42:07.497Z,101000.03
2023-04-30T09:44:26.797Z,100995.69
2023-04-30T09:46:31.059Z,100998.56
2023-04-30T09:48:32.895Z,100994.38
2023-04-30T09:50:39.543Z,100995.22
2023-04-30T09:52:51.859Z,100990.06
2023-04-30T09:54:53.388Z,100989.25
2023-04-30T09:56:56.074Z,100990.66
2023-04-30T09:58:57.965Z,100986.34
2023-04-30T10:01:03.530Z,100996.63
2023-04-30T10:03:07.418Z,100988.91
2023-04-30T10:05:09.681Z,100991.66
2023-04-30T10:07:17.113Z,100990.03
2023-04-30T10:09:19.884Z,100987.16
2023-04-30T10:11:26.534Z,100985.06
2023-04-30T10:13:33.288Z,100985.25
2023-04-30T10:15:38.277Z,100982.34
2023-04-30T10:17:41.373Z,100978.19
2023-04-30T10:19:48.143Z,100981.88
2023-04-30T10:21:49.988Z,100973.06
2023-04-30T10:23:54.249Z,100972.38
2023-04-30T10:25:57.421Z,100977.06
2023-04-30T10:27:59.030Z,100978.31
2023-04-30T10:30:01.710Z,100971.09
2023-04-30T10:32:04.133Z,100973.78
2023-04-30T10:34:17.702Z,100963.97
2023-04-30T10:36:28.112Z,100969.25
2023-04-30T10:38:32.135Z,100970.19
2023-04-30T10:40:38.513Z,100966.84
2023-04-30T10:42:45.733Z,100960.25
2023-04-30T10:44:47.322Z,100958.31
2023-04-30T10:46:48.970Z,100952.66
2023-04-30T10:48:52.589Z,100948.81
2023-04-30T10:50:56.692Z,100952.16
2023-04-30T10:53:02.429Z,100949.13
2023-04-30T10:55:05.449Z,100944.94
2023-04-30T10:57:12.853Z,100945.41
2023-04-30T10:59:14.639Z,100945.09
2023-04-30T11:01:18.804Z,100946.28
2023-04-30T11:03:22.238Z,100945.03
2023-04-30T11:05:35.152Z,100950.16
2023-04-30T11:07:36.918Z,100941.31
2023-04-30T11:09:43.291Z,100940.38
2023-04-30T11:11:45.024Z,100945.19
2023-04-30T11:13:57.820Z,100938.75
2023-04-30T11:16:02.960Z,100938.09
2023-04-30T11:18:04.673Z,100936.00
2023-04-30T11:20:17.151Z,100932.59
2023-04-30T11:22:21.389Z,100930.50
2023-04-30T11:24:22.998Z,100934.63
2023-04-30T11:26:26.316Z,100936.22
2023-04-30T11:28:28.523Z,100927.88
2023-04-30T11:30:33.095Z,100926.28
2023-04-30T11:32:35.747Z,100927.06
2023-04-30T11:34:38.001Z,100929.03
2023-04-30T11:36:41.186Z,100924.91
2023-04-30T11:38:43.427Z,100922.97
2023-04-30T11:40:45.472Z,100933.09
2023-04-30T11:42:47.330Z,100928.75
2023-04-30T11:44:49.002Z,100928.56
2023-04-30T11:46:52.255Z,100919.84
2023-04-30T11:48:53.920Z,100922.31
2023-04-30T11:50:55.497Z,100922.97
2023-04-30T11:52:58.449Z,100919.59
2023-04-30T11:55:00.048Z,100913.47
2023-04-30T11:57:01.714Z,100905.53
2023-04-30T11:59:10.549Z,100914.34
2023-04-30T12:01:12.211Z,100900.31
2023-04-30T12:03:15.421Z,100903.31
2023-04-30T12:05:18.927Z,100902.19
2023-04-30T12:07:22.581Z,100900.09
2023-04-30T12:09:24.514Z,100901.03
2023-04-30T12:11:27.728Z,100896.31
2023-04-30T12:13:33.551Z,100894.78
2023-04-30T12:15:35.169Z,100887.78
2023-04-30T12:17:36.781Z,100891.31
2023-04-30T12:19:39.819Z,100888.75
2023-04-30T12:21:42.930Z,100888.25
2023-04-30T12:23:44.542Z,100879.63
2023-04-30T12:25:46.155Z,100869.09
2023-04-30T12:27:49.271Z,100875.91
2023-04-30T12:29:50.940Z,100869.69
2023-04-30T12:31:54.049Z,100871.06
2023-04-30T12:33:55.974Z,100859.53
2023-04-30T12:35:59.034Z,100865.84
2023-04-30T12:38:05.140Z,100856.16
2023-04-30T12:40:08.212Z,100857.22
2023-04-30T12:42:09.769Z,100855.75
2023-04-30T12:44:19.496Z,100858.91
2023-04-30T12:46:26.557Z,100847.09
2023-04-30T12:48:28.171Z,100852.69
2023-04-30T12:50:29.794Z,100849.69
2023-04-30T12:52:32.972Z,100842.13
2023-04-30T12:54:35.495Z,100851.66
2023-04-30T12:56:37.076Z,100836.50
2023-04-30T12:58:39.264Z,100833.81
2023-04-30T13:00:49.118Z,100831.69
2023-04-30T13:02:50.738Z,100834.97
2023-04-30T13:04:53.611Z,100830.31
2023-04-30T13:06:55.190Z,100829.06
2023-04-30T13:08:59.080Z,100827.84
2023-04-30T13:11:00.771Z,100818.16
2023-04-30T13:13:02.341Z,100814.88
2023-04-30T13:15:04.601Z,100818.88
2023-04-30T13:17:06.532Z,100811.38
2023-04-30T13:19:08.080Z,100809.69
2023-04-30T13:21:09.591Z,100802.78
2023-04-30T13:23:11.508Z,100803.00
2023-04-30T13:25:14.471Z,100807.25
2023-04-30T13:27:16.028Z,100813.56
2023-04-30T13:29:17.582Z,100805.44
2023-04-30T13:31:19.378Z,100806.63
2023-04-30T13:33:21.025Z,100816.16
2023-04-30T13:35:22.869Z,100809.88
2023-04-30T13:37:24.420Z,100807.47
2023-04-30T13:39:25.968Z,100803.31
2023-04-30T13:41:28.782Z,100799.50
2023-04-30T13:43:30.329Z,100797.38
2023-04-30T13:45:34.879Z,100792.25
2023-04-30T13:47:36.515Z,100784.31
2023-04-30T13:49:38.086Z,100785.19
2023-04-30T13:51:39.773Z,100791.59
2023-04-30T13:53:41.372Z,100785.69
2023-04-30T13:55:43.049Z,100780.09
2023-04-30T13:57:45.971Z,100767.09
2023-04-30T13:59:47.602Z,100776.31
2023-04-30T14:01:49.228Z,100764.97
2023-04-30T14:03:50.964Z,100769.25
2023-04-30T14:05:52.728Z,100771.66
2023-04-30T14:07:54.315Z,100773.69
2023-04-30T14:09:56.357Z,100763.88
2023-04-30T14:11:58.209Z,100761.06
2023-04-30T14:14:01.066Z,100768.66
2023-04-30T14:16:02.711Z,100770.63
2023-04-30T14:18:04.522Z,100767.03
2023-04-30T14:20:07.466Z,100765.38
2023-04-30T14:22:09.353Z,100766.78
2023-04-30T14:24:14.140Z,100760.78
2023-04-30T14:26:16.042Z,100764.72
2023-04-30T14:28:17.647Z,100764.09
2023-04-30T14:30:20.676Z,100758.44
2023-04-30T14:32:25.771Z,100757.94
2023-04-30T14:34:27.869Z,100756.44
2023-04-30T14:36:29.610Z,100752.38
2023-04-30T14:38:31.273Z,100746.31
2023-04-30T14:40:32.831Z,100750.25
2023-04-30T14:42:34.524Z,100748.47
2023-04-30T14:44:37.156Z,100743.47
2023-04-30T14:46:40.110Z,100745.53
2023-04-30T14:48:41.924Z,100743.94
2023-04-30T14:50:43.801Z,100742.16
2023-04-30T14:52:45.354Z,100743.81
2023-04-30T14:54:46.939Z,100748.16
2023-04-30T14:56:48.753Z,100740.28
2023-04-30T14:58:50.567Z,100737.88
2023-04-30T15:00:52.209Z,100737.63
2023-04-30T15:02:55.205Z,100721.78
2023-04-30T15:04:56.883Z,100728.94
2023-04-30T15:06:58.482Z,100727.09
2023-04-30T15:09:00.154Z,100718.94
2023-04-30T15:11:01.807Z,100724.59
2023-04-30T15:13:03.539Z,100726.88
2023-04-30T15:15:06.574Z,100726.81
2023-04-30T15:17:08.295Z,100724.13
2023-04-30T15:19:11.659Z,100718.47
2023-04-30T15:21:13.279Z,100712.28
2023-04-30T15:23:14.855Z,100717.94
2023-04-30T15:25:16.697Z,100720.78
2023-04-30T15:27:18.344Z,100720.69
2023-04-30T15:29:23.033Z,100715.44
2023-04-30T15:31:24.764Z,100722.28
2023-04-30T15:33:26.424Z,100725.41
2023-04-30T15:35:29.506Z,100724.03
2023-04-30T15:37:31.082Z,100727.56
2023-04-30T15:39:32.605Z,100715.59
2023-04-30T15:41:34.197Z,100717.31
2023-04-30T15:43:35.766Z,100719.25
2023-04-30T15:45:37.409Z,100721.66
2023-04-30T15:47:39.494Z,100714.66
2023-04-30T15:49:41.123Z,100710.66
2023-04-30T15:51:44.069Z,100717.19
2023-04-30T15:53:45.650Z,100715.03
2023-04-30T15:55:48.296Z,100710.16
2023-04-30T15:57:50.003Z,100704.41
2023-04-30T15:59:51.547Z,100694.56
2023-04-30T16:01:53.275Z,100692.44
2023-04-30T16:03:55.081Z,100696.00
2023-04-30T16:05:57.398Z,100683.19
2023-04-30T16:08:00.552Z,100694.84
2023-04-30T16:10:03.027Z,100690.13
2023-04-30T16:12:04.515Z,100691.16
2023-04-30T16:14:06.150Z,100684.25
2023-04-30T16:16:08.120Z,100682.03
2023-04-30T16:18:09.715Z,100679.81
2023-04-30T16:20:12.344Z,100681.78
2023-04-30T16:22:13.999Z,100670.25
2023-04-30T16:24:16.879Z,100677.34
2023-04-30T16:26:18.429Z,100670.13
2023-04-30T16:28:19.976Z,100674.41
2023-04-30T16:30:21.787Z,100663.06
2023-04-30T16:32:23.466Z,100662.53
2023-04-30T16:34:25.262Z,100661.63
2023-04-30T16:36:26.883Z,100667.75
2023-04-30T16:38:28.419Z,100665.19
2023-04-30T16:40:31.447Z,100661.63
2023-04-30T16:42:33.404Z,100657.88
2023-04-30T16:44:35.098Z,100665.38
2023-04-30T16:46:36.771Z,100659.19
2023-04-30T16:48:38.477Z,100660.13
2023-04-30T16:50:40.129Z,100651.66
2023-04-30T16:52:41.759Z,100657.16
2023-04-30T16:54:43.460Z,100642.66
2023-04-30T16:56:46.721Z,100641.19
2023-04-30T16:58:48.311Z,100640.75
2023-04-30T17:00:49.949Z,100642.25
2023-04-30T17:02:51.738Z,100636.84
2023-04-30T17:04:53.354Z,100634.91
2023-04-30T17:06:54.931Z,100644.19
2023-04-30T17:08:56.562Z,100641.78
2023-04-30T17:10:58.084Z,100631.88
2023-04-30T17:13:02.143Z,100627.41
2023-04-30T17:15:04.365Z,100628.28
2023-04-30T17:17:05.973Z,100621.19
2023-04-30T17:19:07.485Z,100631.13
2023-04-30T17:21:09.122Z,100629.88
2023-04-30T17:23:10.712Z,100637.09
2023-04-30T17:25:12.278Z,100630.03
2023-04-30T17:27:13.995Z,100640.78
2023-04-30T17:29:17.051Z,100638.41
2023-04-30T17:31:18.674Z,100632.00
2023-04-30T17:33:20.284Z,100634.63
2023-04-30T17:35:28.948Z,100638.16
2023-04-30T17:37:30.480Z,100639.19
2023-04-30T17:39:32.118Z,100634.31
2023-04-30T17:41:33.813Z,100636.06
2023-04-30T17:43:35.532Z,100640.63
2023-04-30T17:45:38.584Z,100639.03
2023-04-30T17:47:40.291Z,100645.19
2023-04-30T17:49:41.894Z,100641.19
2023-04-30T17:51:43.480Z,100647.81
2023-04-30T17:53:45.082Z,100651.47
2023-04-30T17:55:46.859Z,100644.28
2023-04-30T17:57:48.505Z,100646.22
2023-04-30T17:59:50.090Z,100645.53
2023-04-30T18:01:55.844Z,100645.19
2023-04-30T18:03:59.836Z,100639.16
2023-04-30T18:06:01.666Z,100643.38
2023-04-30T18:08:03.544Z,100652.28
2023-04-30T18:10:06.138Z,100648.84
2023-04-30T18:12:07.778Z,100643.38
2023-04-30T18:14:09.249Z,100643.50
2023-04-30T18:16:11.054Z,100647.38
2023-04-30T18:18:14.527Z,100647.72
2023-04-30T18:20:16.580Z,100644.63
2023-04-30T18:22:18.618Z,100650.13
2023-04-30T18:24:20.399Z,100641.56
2023-04-30T18:26:22.556Z,100651.72
2023-04-30T18:28:24.569Z,100646.69
2023-04-30T18:30:26.490Z,100646.22
2023-04-30T18:32:28.149Z,100645.91
2023-04-30T18:34:31.509Z,100646.59
2023-04-30T18:36:33.164Z,100646.25
2023-04-30T18:38:36.064Z,100657.44
2023-04-30T18:40:37.694Z,100645.00
2023-04-30T18:42:39.294Z,100648.88
2023-04-30T18:44:40.869Z,100649.91
2023-04-30T18:46:42.483Z,100649.97
2023-04-30T18:48:44.056Z,100658.06
2023-04-30T18:50:47.199Z,100646.91
2023-04-30T18:52:48.839Z,100656.13
2023-04-30T18:54:50.369Z,100647.81
2023-04-30T18:56:52.224Z,100642.78
2023-04-30T18:58:54.353Z,100650.97
2023-04-30T19:00:57.072Z,100655.66
2023-04-30T19:02:58.805Z,100654.06
2023-04-30T19:05:02.115Z,100657.03
2023-04-30T19:07:05.160Z,100658.19
2023-04-30T19:09:06.878Z,100655.31
2023-04-30T19:11:08.513Z,100654.88
2023-04-30T19:13:10.124Z,100663.72
2023-04-30T19:15:15.233Z,100661.00
2023-04-30T19:17:17.603Z,100662.25
2023-04-30T19:19:20.422Z,100665.44
2023-04-30T19:21:22.332Z,100662.13
2023-04-30T19:23:25.418Z,100663.50
2023-04-30T19:25:27.016Z,100673.84
2023-04-30T19:27:28.566Z,100673.63
2023-04-30T19:29:30.251Z,100664.59
2023-04-30T19:31:32.788Z,100675.84
2023-04-30T19:33:34.459Z,100665.63
2023-04-30T19:35:36.288Z,100674.06
2023-04-30T19:37:37.941Z,100672.22
2023-04-30T19:39:40.895Z,100678.81
2023-04-30T19:41:42.487Z,100676.16
2023-04-30T19:43:44.094Z,100672.34
2023-04-30T19:45:47.435Z,100674.81
2023-04-30T19:47:49.106Z,100675.72
2023-04-30T19:49:50.778Z,100674.13
2023-04-30T19:51:52.941Z,100673.31
2023-04-30T19:53:54.611Z,100672.81
2023-04-30T19:55:57.908Z,100675.59
2023-04-30T19:58:00.600Z,100670.94
2023-04-30T20:00:03.404Z,100668.19
2023-04-30T20:02:05.118Z,100674.94
2023-04-30T20:04:07.119Z,100669.34
2023-04-30T20:06:09.163Z,100675.22
2023-04-30T20:08:10.787Z,100681.34
2023-04-30T20:10:12.432Z,100684.41
2023-04-30T20:12:15.567Z,100684.81
2023-04-30T20:14:17.377Z,100682.75
2023-04-30T20:16:19.150Z,100680.00
2023-04-30T20:18:21.520Z,100677.50
2023-04-30T20:20:23.271Z,100676.13
2023-04-30T20:22:25.970Z,100666.84
2023-04-30T20:24:27.660Z,100673.78
2023-04-30T20:26:29.290Z,100676.16
2023-04-30T20:28:33.328Z,100669.56
2023-04-30T20:30:35.263Z,100670.56
2023-04-30T20:32:37.287Z,100673.78
2023-04-30T20:34:39.305Z,100671.03
2023-04-30T20:36:40.912Z,100661.59
2023-04-30T20:38:42.545Z,100666.28
2023-04-30T20:40:45.724Z,100663.53
2023-04-30T20:42:47.562Z,100659.88
2023-04-30T20:44:50.686Z,100664.38
2023-04-30T20:46:52.462Z,100664.56
2023-04-30T20:48:54.732Z,100659.28
2023-04-30T20:50:56.375Z,100667.06
2023-04-30T20:52:58.278Z,100659.31
2023-04-30T20:54:59.877Z,100661.91
2023-04-30T20:57:01.494Z,100650.38
2023-04-30T20:59:03.131Z,100660.88
2023-04-30T21:01:06.378Z,100658.94
2023-04-30T21:03:08.434Z,100655.44
2023-04-30T21:05:10.573Z,100659.94
2023-04-30T21:07:13.210Z,100665.88
2023-04-30T21:09:14.746Z,100663.34
2023-04-30T21:11:16.393Z,100670.09
2023-04-30T21:13:18.034Z,100665.94
2023-04-30T21:15:19.663Z,100665.94
2023-04-30T21:17:23.211Z,100666.09
2023-04-30T21:19:24.932Z,100658.88
2023-04-30T21:21:27.088Z,100660.00
2023-04-30T21:23:28.722Z,100663.06
2023-04-30T21:25:30.498Z,100665.47
2023-04-30T21:27:32.464Z,100663.22
2023-04-30T21:29:34.855Z,100660.81
2023-04-30T21:31:36.860Z,100654.88
2023-04-30T21:33:41.097Z,100658.91
2023-04-30T21:35:42.883Z,100657.13
2023-04-30T21:37:45.838Z,100653.75
2023-04-30T21:39:47.607Z,100654.09
2023-04-30T21:41:49.201Z,100654.38
2023-04-30T21:43:51.001Z,100657.59
2023-04-30T21:45:52.879Z,100655.84
2023-04-30T21:47:54.506Z,100647.50
2023-04-30T21:49:57.840Z,100644.78
2023-04-30T21:52:01.141Z,100646.88
2023-04-30T21:54:02.713Z,100646.41
2023-04-30T21:56:07.130Z,100642.25
2023-04-30T21:58:10.139Z,100645.44
2023-04-30T22:00:12.362Z,100637.75
2023-04-30T22:04:21.984Z,100636.16
2023-04-30T22:06:25.128Z,100633.91
2023-04-30T22:08:28.248Z,100637.41
2023-04-30T22:10:29.920Z,100639.03
2023-04-30T22:12:31.845Z,100628.13
2023-04-30T22:14:33.497Z,100631.97
2023-04-30T22:16:35.224Z,100631.34
2023-04-30T22:18:36.934Z,100627.16
2023-04-30T22:20:38.619Z,100623.94
2023-04-30T22:22:41.565Z,100626.38
2023-04-30T22:24:43.454Z,100621.06
2023-04-30T22:26:45.159Z,100616.44
2023-04-30T22:28:46.840Z,100623.31
2023-04-30T22:30:48.411Z,100623.50
2023-04-30T22:32:50.067Z,100616.94
2023-04-30T22:34:52.306Z,100621.72
2023-04-30T22:36:53.924Z,100616.28
2023-04-30T22:38:56.981Z,100614.84
2023-04-30T22:40:59.033Z,100610.50
2023-04-30T22:43:01.157Z,100612.91
2023-04-30T22:45:02.907Z,100603.78
2023-04-30T22:47:04.777Z,100600.72
2023-04-30T22:49:07.637Z,100602.97
2023-04-30T22:51:10.658Z,100607.28
2023-04-30T22:53:12.251Z,100599.31
2023-04-30T22:55:15.484Z,100605.53
2023-04-30T22:57:17.084Z,100596.75
2023-04-30T22:59:19.690Z,100603.28
2023-04-30T23:01:21.329Z,100603.28
2023-04-30T23:03:23.178Z,100604.88
2023-04-30T23:05:25.138Z,100608.44
2023-04-30T23:07:26.783Z,100603.28
2023-04-30T23:09:31.149Z,100592.38
2023-04-30T23:11:34.083Z,100596.56
2023-04-30T23:13:35.672Z,100595.88
2023-04-30T23:15:37.356Z,100594.28
2023-04-30T23:17:39.007Z,100587.69
2023-04-30T23:19:42.326Z,100596.22
2023-04-30T23:21:43.952Z,100592.38
2023-04-30T23:23:45.588Z,100586.56